Flood From: 22-02-2018 06:00 Until: 23-02-2018 06:00 warning for: Flood Level: Yellow info button

Although rather usual in this region, locally or potentially dangerous phenomena are expected. (such as local winds, summer thunderstorms, rising streams or high waves) Be aware and pay attention to the latest weather updates, especially if you carry out activities exposed to weather or close to a stream or shoreline. 


Meteo18 Weather Cam more information Meteo18 Weather Cam


Thunder radar more information blitzortung!


Rain radar more information rain snow radar


Visit our other weather sites:

Template documentation
and downloads

And another site



Weather Underground History page Text

Daily Summary for January 28, 2018 Units:  Both    English   Metric
« Previous Day
Next Day »
Daily Weekly Monthly Yearly Custom
  High: Low: Average:
Temperature: TemperatureC °F /  -17.8 °C -0.1 °F /  -17.8 °C 3.8 °F /  -15.7 °C
Dew Point: DewpointC °F /  -17.8 °C -0.4 °F /  -18 °C 3.5 °F /  -15.8 °C
Humidity: Humidity % 97 % 98 %
Wind Speed: WindSpeedKMH mph /  0 km/h - 5.1 mph /  8.2 km/h
Wind Gust: WindSpeedGustKMH mph /  0 km/h - -
Wind:- - SW
Pressure: PressurehPa in /  0 hPa 1037.1 in /  35116.2 hPa -
Precipitation: 0.0 in /  0 mm    
Historical Graphs
 
 
Tabular Data for January 28, 2018
Time Temperature Dew Point Pressure Wind Wind Speed Wind Gust Humidity Rainfall Rate (Hourly)
TemperatureC °F /  -17.8 °C DewpointC °F /  -17.8 °C PressurehPa in /  0 hPa Calm     Humidity % HourlyPrecipMM in /  0 mm
00:02 0.3 °F /  -17.6 °C 0.0 °F /  -17.8 °C 1037.5 in /  35129.8 hPa SSW 4.7 mph /  7.6 km/h 6.4 mph /  10.3 km/h 98 % 0.0 in /  0 mm
00:08 0.2 °F /  -17.7 °C -0.1 °F /  -17.8 °C 1037.5 in /  35129.8 hPa WSW 3.2 mph /  5.1 km/h 4.8 mph /  7.7 km/h 98 % 0.0 in /  0 mm
00:14 0.1 °F /  -17.7 °C -0.3 °F /  -17.9 °C 1037.1 in /  35116.2 hPa SW 3.2 mph /  5.1 km/h 8.0 mph /  12.9 km/h 97 % 0.0 in /  0 mm
00:21 0.1 °F /  -17.7 °C -0.3 °F /  -17.9 °C 1037.1 in /  35116.2 hPa WSW 1.4 mph /  2.3 km/h 6.4 mph /  10.3 km/h 97 % 0.0 in /  0 mm
00:27 0.2 °F /  -17.7 °C -0.1 °F /  -17.8 °C 1037.1 in /  35116.2 hPa WSW 6.4 mph /  10.3 km/h 8.0 mph /  12.9 km/h 98 % 0.0 in /  0 mm
00:33 0.2 °F /  -17.7 °C -0.1 °F /  -17.8 °C 1037.5 in /  35129.8 hPa SW 3.2 mph /  5.1 km/h 6.4 mph /  10.3 km/h 98 % 0.0 in /  0 mm
00:39 0.1 °F /  -17.7 °C -0.2 °F /  -17.9 °C 1037.5 in /  35129.8 hPa SW 3.2 mph /  5.1 km/h 6.4 mph /  10.3 km/h 98 % 0.0 in /  0 mm
00:45 0.2 °F /  -17.7 °C -0.1 °F /  -17.8 °C 1037.5 in /  35129.8 hPa SSW 3.2 mph /  5.1 km/h 6.4 mph /  10.3 km/h 98 % 0.0 in /  0 mm
00:51 0.2 °F /  -17.7 °C -0.1 °F /  -17.8 °C 1037.1 in /  35116.2 hPa SSW 3.2 mph /  5.1 km/h 6.4 mph /  10.3 km/h 98 % 0.0 in /  0 mm
00:57 0.2 °F /  -17.7 °C -0.1 °F /  -17.8 °C 1037.1 in /  35116.2 hPa SW 1.4 mph /  2.3 km/h 6.4 mph /  10.3 km/h 98 % 0.0 in /  0 mm
01:03 0.2 °F /  -17.7 °C -0.1 °F /  -17.8 °C 1037.5 in /  35129.8 hPa SW 3.2 mph /  5.1 km/h 6.4 mph /  10.3 km/h 98 % 0.0 in /  0 mm
01:09 0.3 °F /  -17.6 °C 0.0 °F /  -17.8 °C 1037.5 in /  35129.8 hPa SSW 6.4 mph /  10.3 km/h 11.3 mph /  18.2 km/h 98 % 0.0 in /  0 mm
01:15 0.1 °F /  -17.7 °C -0.2 °F /  -17.9 °C 1037.5 in /  35129.8 hPa SSW 6.4 mph /  10.3 km/h 9.7 mph /  15.6 km/h 98 % 0.0 in /  0 mm
01:21 0.1 °F /  -17.7 °C -0.2 °F /  -17.9 °C 1037.5 in /  35129.8 hPa SSW 4.7 mph /  7.6 km/h 8.0 mph /  12.9 km/h 98 % 0.0 in /  0 mm
01:27 0.1 °F /  -17.7 °C -0.2 °F /  -17.9 °C 1037.1 in /  35116.2 hPa SSW 4.7 mph /  7.6 km/h 8.0 mph /  12.9 km/h 98 % 0.0 in /  0 mm
01:33 0.0 °F /  -17.8 °C -0.3 °F /  -17.9 °C 1037.1 in /  35116.2 hPa SW 4.7 mph /  7.6 km/h 8.0 mph /  12.9 km/h 98 % 0.0 in /  0 mm
01:39 -0.1 °F /  -17.8 °C -0.4 °F /  -18 °C 1037.1 in /  35116.2 hPa SW 3.2 mph /  5.1 km/h 6.4 mph /  10.3 km/h 98 % 0.0 in /  0 mm
01:45 0.0 °F /  -17.8 °C -0.3 °F /  -17.9 °C 1037.1 in /  35116.2 hPa SSW 1.4 mph /  2.3 km/h 8.0 mph /  12.9 km/h 98 % 0.0 in /  0 mm
01:51 0.1 °F /  -17.7 °C -0.2 °F /  -17.9 °C 1037.1 in /  35116.2 hPa SSE 4.7 mph /  7.6 km/h 6.4 mph /  10.3 km/h 98 % 0.0 in /  0 mm
01:57 0.1 °F /  -17.7 °C -0.2 °F /  -17.9 °C 1037.1 in /  35116.2 hPa SSW 6.4 mph /  10.3 km/h 6.4 mph /  10.3 km/h 98 % 0.0 in /  0 mm
02:03 0.1 °F /  -17.7 °C -0.2 °F /  -17.9 °C 1037.1 in /  35116.2 hPa SSW 6.4 mph /  10.3 km/h 6.4 mph /  10.3 km/h 98 % 0.0 in /  0 mm
02:09 0.1 °F /  -17.7 °C -0.2 °F /  -17.9 °C 1037.1 in /  35116.2 hPa SW 4.7 mph /  7.6 km/h 8.0 mph /  12.9 km/h 98 % 0.0 in /  0 mm
02:15 0.2 °F /  -17.7 °C -0.1 °F /  -17.8 °C 1037.1 in /  35116.2 hPa SSW 1.4 mph /  2.3 km/h 8.0 mph /  12.9 km/h 98 % 0.0 in /  0 mm
02:21 0.2 °F /  -17.7 °C -0.1 °F /  -17.8 °C 1037.5 in /  35129.8 hPa SSW 1.4 mph /  2.3 km/h 4.8 mph /  7.7 km/h 98 % 0.0 in /  0 mm
02:27 0.3 °F /  -17.6 °C 0.0 °F /  -17.8 °C 1037.5 in /  35129.8 hPa SSW 1.4 mph /  2.3 km/h 6.4 mph /  10.3 km/h 98 % 0.0 in /  0 mm
02:33 0.3 °F /  -17.6 °C 0.0 °F /  -17.8 °C 1037.5 in /  35129.8 hPa SSW 6.4 mph /  10.3 km/h 6.4 mph /  10.3 km/h 98 % 0.0 in /  0 mm
02:39 0.3 °F /  -17.6 °C 0.0 °F /  -17.8 °C 1037.1 in /  35116.2 hPa South 6.4 mph /  10.3 km/h 8.0 mph /  12.9 km/h 98 % 0.0 in /  0 mm
02:45 0.3 °F /  -17.6 °C 0.0 °F /  -17.8 °C 1037.5 in /  35129.8 hPa SSW 4.7 mph /  7.6 km/h 4.8 mph /  7.7 km/h 98 % 0.0 in /  0 mm
02:51 0.3 °F /  -17.6 °C 0.0 °F /  -17.8 °C 1037.5 in /  35129.8 hPa SW 1.4 mph /  2.3 km/h 4.8 mph /  7.7 km/h 98 % 0.0 in /  0 mm
02:57 0.3 °F /  -17.6 °C 0.0 °F /  -17.8 °C 1037.5 in /  35129.8 hPa SW 6.4 mph /  10.3 km/h 8.0 mph /  12.9 km/h 98 % 0.0 in /  0 mm
03:03 0.3 °F /  -17.6 °C 0.0 °F /  -17.8 °C 1037.8 in /  35139.9 hPa SW 3.2 mph /  5.1 km/h 6.4 mph /  10.3 km/h 98 % 0.0 in /  0 mm
03:09 0.2 °F /  -17.7 °C -0.1 °F /  -17.8 °C 1037.8 in /  35139.9 hPa SSW 1.4 mph /  2.3 km/h 4.8 mph /  7.7 km/h 98 % 0.0 in /  0 mm
03:15 0.2 °F /  -17.7 °C -0.1 °F /  -17.8 °C 1037.8 in /  35139.9 hPa SSW 4.7 mph /  7.6 km/h 6.4 mph /  10.3 km/h 98 % 0.0 in /  0 mm
03:21 0.2 °F /  -17.7 °C -0.1 °F /  -17.8 °C 1037.8 in /  35139.9 hPa SW 4.7 mph /  7.6 km/h 4.8 mph /  7.7 km/h 98 % 0.0 in /  0 mm
03:27 0.3 °F /  -17.6 °C 0.0 °F /  -17.8 °C 1037.8 in /  35139.9 hPa SW 1.4 mph /  2.3 km/h 3.2 mph /  5.1 km/h 98 % 0.0 in /  0 mm
03:33 0.3 °F /  -17.6 °C 0.0 °F /  -17.8 °C 1037.8 in /  35139.9 hPa SSW 4.7 mph /  7.6 km/h 8.0 mph /  12.9 km/h 98 % 0.0 in /  0 mm
03:39 0.2 °F /  -17.7 °C -0.1 °F /  -17.8 °C 1037.8 in /  35139.9 hPa SSW 7.9 mph /  12.7 km/h 11.3 mph /  18.2 km/h 98 % 0.0 in /  0 mm
03:45 0.2 °F /  -17.7 °C -0.1 °F /  -17.8 °C 1037.8 in /  35139.9 hPa SSW 4.7 mph /  7.6 km/h 9.7 mph /  15.6 km/h 98 % 0.0 in /  0 mm
03:51 0.2 °F /  -17.7 °C -0.1 °F /  -17.8 °C 1037.8 in /  35139.9 hPa SW 7.9 mph /  12.7 km/h 11.3 mph /  18.2 km/h 98 % 0.0 in /  0 mm
03:57 0.2 °F /  -17.7 °C -0.1 °F /  -17.8 °C 1037.8 in /  35139.9 hPa SSW 6.4 mph /  10.3 km/h 9.7 mph /  15.6 km/h 98 % 0.0 in /  0 mm
04:03 0.1 °F /  -17.7 °C -0.2 °F /  -17.9 °C 1037.5 in /  35129.8 hPa SSW 7.9 mph /  12.7 km/h 9.7 mph /  15.6 km/h 98 % 0.0 in /  0 mm
04:09 0.2 °F /  -17.7 °C -0.1 °F /  -17.8 °C 1037.5 in /  35129.8 hPa SW 9.7 mph /  15.6 km/h 11.3 mph /  18.2 km/h 98 % 0.0 in /  0 mm
04:15 0.2 °F /  -17.7 °C -0.1 °F /  -17.8 °C 1037.5 in /  35129.8 hPa SSW 7.9 mph /  12.7 km/h 8.0 mph /  12.9 km/h 98 % 0.0 in /  0 mm
04:21 0.2 °F /  -17.7 °C -0.1 °F /  -17.8 °C 1037.5 in /  35129.8 hPa SW 4.7 mph /  7.6 km/h 9.7 mph /  15.6 km/h 98 % 0.0 in /  0 mm
04:27 0.3 °F /  -17.6 °C 0.0 °F /  -17.8 °C 1037.5 in /  35129.8 hPa SW 3.2 mph /  5.1 km/h 6.4 mph /  10.3 km/h 98 % 0.0 in /  0 mm
04:33 0.3 °F /  -17.6 °C 0.0 °F /  -17.8 °C 1037.8 in /  35139.9 hPa SSW 4.7 mph /  7.6 km/h 6.4 mph /  10.3 km/h 98 % 0.0 in /  0 mm
04:39 0.2 °F /  -17.7 °C -0.1 °F /  -17.8 °C 1037.8 in /  35139.9 hPa SSW 4.7 mph /  7.6 km/h 8.0 mph /  12.9 km/h 98 % 0.0 in /  0 mm
04:45 0.3 °F /  -17.6 °C 0.0 °F /  -17.8 °C 1037.8 in /  35139.9 hPa SSW 6.4 mph /  10.3 km/h 9.7 mph /  15.6 km/h 98 % 0.0 in /  0 mm
04:51 0.2 °F /  -17.7 °C -0.1 °F /  -17.8 °C 1037.8 in /  35139.9 hPa SSW 7.9 mph /  12.7 km/h 12.9 mph /  20.8 km/h 98 % 0.0 in /  0 mm
04:57 0.3 °F /  -17.6 °C 0.0 °F /  -17.8 °C 1037.8 in /  35139.9 hPa SSW 11.1 mph /  17.9 km/h 12.9 mph /  20.8 km/h 98 % 0.0 in /  0 mm
05:03 0.3 °F /  -17.6 °C 0.0 °F /  -17.8 °C 1037.8 in /  35139.9 hPa SSW 11.1 mph /  17.9 km/h 11.3 mph /  18.2 km/h 98 % 0.0 in /  0 mm
05:09 0.3 °F /  -17.6 °C 0.0 °F /  -17.8 °C 1037.8 in /  35139.9 hPa SSW 6.4 mph /  10.3 km/h 9.7 mph /  15.6 km/h 98 % 0.0 in /  0 mm
05:15 0.3 °F /  -17.6 °C 0.0 °F /  -17.8 °C 1037.8 in /  35139.9 hPa SSW 7.9 mph /  12.7 km/h 11.3 mph /  18.2 km/h 98 % 0.0 in /  0 mm
05:21 0.4 °F /  -17.6 °C 0.1 °F /  -17.7 °C 1037.8 in /  35139.9 hPa SW 6.4 mph /  10.3 km/h 9.7 mph /  15.6 km/h 98 % 0.0 in /  0 mm
05:27 0.4 °F /  -17.6 °C 0.1 °F /  -17.7 °C 1037.8 in /  35139.9 hPa SSW 7.9 mph /  12.7 km/h 9.7 mph /  15.6 km/h 98 % 0.0 in /  0 mm
05:33 0.4 °F /  -17.6 °C 0.1 °F /  -17.7 °C 1037.8 in /  35139.9 hPa SW 11.1 mph /  17.9 km/h 11.3 mph /  18.2 km/h 98 % 0.0 in /  0 mm
05:39 0.4 °F /  -17.6 °C 0.1 °F /  -17.7 °C 1037.8 in /  35139.9 hPa SW 6.4 mph /  10.3 km/h 11.3 mph /  18.2 km/h 98 % 0.0 in /  0 mm
05:45 0.4 °F /  -17.6 °C 0.1 °F /  -17.7 °C 1038.1 in /  35150.1 hPa SSW 9.7 mph /  15.6 km/h 11.3 mph /  18.2 km/h 98 % 0.0 in /  0 mm
05:51 0.5 °F /  -17.5 °C 0.2 °F /  -17.7 °C 1038.1 in /  35150.1 hPa SSW 7.9 mph /  12.7 km/h 9.7 mph /  15.6 km/h 98 % 0.0 in /  0 mm
05:57 0.5 °F /  -17.5 °C 0.2 °F /  -17.7 °C 1038.1 in /  35150.1 hPa SW 9.7 mph /  15.6 km/h 9.7 mph /  15.6 km/h 98 % 0.0 in /  0 mm
06:03 0.6 °F /  -17.4 °C 0.3 °F /  -17.6 °C 1038.1 in /  35150.1 hPa SW 7.9 mph /  12.7 km/h 8.0 mph /  12.9 km/h 98 % 0.0 in /  0 mm
06:09 0.6 °F /  -17.4 °C 0.3 °F /  -17.6 °C 1038.1 in /  35150.1 hPa SSW 3.2 mph /  5.1 km/h 6.4 mph /  10.3 km/h 98 % 0.0 in /  0 mm
06:15 0.6 °F /  -17.4 °C 0.3 °F /  -17.6 °C 1038.1 in /  35150.1 hPa SSW 11.1 mph /  17.9 km/h 11.3 mph /  18.2 km/h 98 % 0.0 in /  0 mm
06:21 0.6 °F /  -17.4 °C 0.3 °F /  -17.6 °C 1038.1 in /  35150.1 hPa SSW 11.1 mph /  17.9 km/h 11.3 mph /  18.2 km/h 98 % 0.0 in /  0 mm
06:27 0.7 °F /  -17.4 °C 0.4 °F /  -17.6 °C 1038.1 in /  35150.1 hPa SSW 4.7 mph /  7.6 km/h 11.3 mph /  18.2 km/h 98 % 0.0 in /  0 mm
06:33 0.7 °F /  -17.4 °C 0.4 °F /  -17.6 °C 1038.1 in /  35150.1 hPa SSW 6.4 mph /  10.3 km/h 12.9 mph /  20.8 km/h 98 % 0.0 in /  0 mm
06:39 0.7 °F /  -17.4 °C 0.4 °F /  -17.6 °C 1038.1 in /  35150.1 hPa SSW 7.9 mph /  12.7 km/h 12.9 mph /  20.8 km/h 98 % 0.0 in /  0 mm
06:45 0.8 °F /  -17.3 °C 0.5 °F /  -17.5 °C 1038.1 in /  35150.1 hPa SW 7.9 mph /  12.7 km/h 14.5 mph /  23.3 km/h 98 % 0.0 in /  0 mm
06:51 0.8 °F /  -17.3 °C 0.5 °F /  -17.5 °C 1038.1 in /  35150.1 hPa SSW 7.9 mph /  12.7 km/h 12.9 mph /  20.8 km/h 98 % 0.0 in /  0 mm
06:57 0.9 °F /  -17.3 °C 0.6 °F /  -17.4 °C 1038.1 in /  35150.1 hPa SSW 6.4 mph /  10.3 km/h 9.7 mph /  15.6 km/h 98 % 0.0 in /  0 mm
07:03 0.9 °F /  -17.3 °C 0.6 °F /  -17.4 °C 1038.1 in /  35150.1 hPa SSW 4.7 mph /  7.6 km/h 9.7 mph /  15.6 km/h 98 % 0.0 in /  0 mm
07:09 0.9 °F /  -17.3 °C 0.6 °F /  -17.4 °C 1038.5 in /  35163.6 hPa SSW 4.7 mph /  7.6 km/h 8.0 mph /  12.9 km/h 98 % 0.0 in /  0 mm
07:15 0.9 °F /  -17.3 °C 0.6 °F /  -17.4 °C 1038.5 in /  35163.6 hPa SW 7.9 mph /  12.7 km/h 8.0 mph /  12.9 km/h 98 % 0.0 in /  0 mm
07:21 1.0 °F /  -17.2 °C 0.7 °F /  -17.4 °C 1038.5 in /  35163.6 hPa SSW 6.4 mph /  10.3 km/h 6.4 mph /  10.3 km/h 98 % 0.0 in /  0 mm
07:27 1.1 °F /  -17.2 °C 0.8 °F /  -17.3 °C 1038.5 in /  35163.6 hPa SSW 3.2 mph /  5.1 km/h 6.4 mph /  10.3 km/h 98 % 0.0 in /  0 mm
07:33 1.1 °F /  -17.2 °C 0.8 °F /  -17.3 °C 1038.5 in /  35163.6 hPa SSW 7.9 mph /  12.7 km/h 9.7 mph /  15.6 km/h 98 % 0.0 in /  0 mm
07:39 1.2 °F /  -17.1 °C 0.9 °F /  -17.3 °C 1038.5 in /  35163.6 hPa SSW 4.7 mph /  7.6 km/h 6.4 mph /  10.3 km/h 98 % 0.0 in /  0 mm
07:45 1.2 °F /  -17.1 °C 0.9 °F /  -17.3 °C 1038.5 in /  35163.6 hPa SSW 3.2 mph /  5.1 km/h 9.7 mph /  15.6 km/h 98 % 0.0 in /  0 mm
07:51 1.2 °F /  -17.1 °C 0.9 °F /  -17.3 °C 1038.5 in /  35163.6 hPa SSW 4.7 mph /  7.6 km/h 9.7 mph /  15.6 km/h 98 % 0.0 in /  0 mm
07:57 1.2 °F /  -17.1 °C 0.9 °F /  -17.3 °C 1038.5 in /  35163.6 hPa SSW 4.7 mph /  7.6 km/h 8.0 mph /  12.9 km/h 98 % 0.0 in /  0 mm
08:03 1.3 °F /  -17.1 °C 1.0 °F /  -17.2 °C 1038.5 in /  35163.6 hPa SW 3.2 mph /  5.1 km/h 4.8 mph /  7.7 km/h 98 % 0.0 in /  0 mm
08:09 1.3 °F /  -17.1 °C 1.0 °F /  -17.2 °C 1038.5 in /  35163.6 hPa SW 4.7 mph /  7.6 km/h 6.4 mph /  10.3 km/h 98 % 0.0 in /  0 mm
08:15 1.3 °F /  -17.1 °C 1.0 °F /  -17.2 °C 1038.8 in /  35173.8 hPa SSW 4.7 mph /  7.6 km/h 6.4 mph /  10.3 km/h 98 % 0.0 in /  0 mm
08:21 1.3 °F /  -17.1 °C 1.0 °F /  -17.2 °C 1038.8 in /  35173.8 hPa SSW 4.7 mph /  7.6 km/h 4.8 mph /  7.7 km/h 98 % 0.0 in /  0 mm
08:27 1.4 °F /  -17 °C 1.1 °F /  -17.2 °C 1038.8 in /  35173.8 hPa SSW 4.7 mph /  7.6 km/h 8.0 mph /  12.9 km/h 98 % 0.0 in /  0 mm
08:33 1.4 °F /  -17 °C 1.1 °F /  -17.2 °C 1038.8 in /  35173.8 hPa SW 4.7 mph /  7.6 km/h 8.0 mph /  12.9 km/h 98 % 0.0 in /  0 mm
08:39 1.4 °F /  -17 °C 1.1 °F /  -17.2 °C 1038.8 in /  35173.8 hPa SSW 7.9 mph /  12.7 km/h 11.3 mph /  18.2 km/h 98 % 0.0 in /  0 mm
08:45 1.5 °F /  -16.9 °C 1.2 °F /  -17.1 °C 1038.8 in /  35173.8 hPa SSW 6.4 mph /  10.3 km/h 9.7 mph /  15.6 km/h 98 % 0.0 in /  0 mm
08:51 1.6 °F /  -16.9 °C 1.3 °F /  -17.1 °C 1038.8 in /  35173.8 hPa SW 7.9 mph /  12.7 km/h 11.3 mph /  18.2 km/h 98 % 0.0 in /  0 mm
08:57 1.6 °F /  -16.9 °C 1.3 °F /  -17.1 °C 1039.2 in /  35187.3 hPa SSW 6.4 mph /  10.3 km/h 9.7 mph /  15.6 km/h 98 % 0.0 in /  0 mm
09:03 1.7 °F /  -16.8 °C 1.4 °F /  -17 °C 1039.2 in /  35187.3 hPa SW 7.9 mph /  12.7 km/h 9.7 mph /  15.6 km/h 98 % 0.0 in /  0 mm
09:09 1.8 °F /  -16.8 °C 1.5 °F /  -16.9 °C 1039.2 in /  35187.3 hPa SW 9.7 mph /  15.6 km/h 9.7 mph /  15.6 km/h 98 % 0.0 in /  0 mm
09:15 1.8 °F /  -16.8 °C 1.5 °F /  -16.9 °C 1039.2 in /  35187.3 hPa SSW 4.7 mph /  7.6 km/h 8.0 mph /  12.9 km/h 98 % 0.0 in /  0 mm
09:21 1.9 °F /  -16.7 °C 1.6 °F /  -16.9 °C 1039.5 in /  35197.5 hPa SW 7.9 mph /  12.7 km/h 11.3 mph /  18.2 km/h 98 % 0.0 in /  0 mm
09:27 1.9 °F /  -16.7 °C 1.6 °F /  -16.9 °C 1039.5 in /  35197.5 hPa SSW 6.4 mph /  10.3 km/h 11.3 mph /  18.2 km/h 98 % 0.0 in /  0 mm
09:33 2.0 °F /  -16.7 °C 1.7 °F /  -16.8 °C 1039.5 in /  35197.5 hPa SSW 1.4 mph /  2.3 km/h 6.4 mph /  10.3 km/h 98 % 0.0 in /  0 mm
09:39 2.1 °F /  -16.6 °C 1.8 °F /  -16.8 °C 1039.5 in /  35197.5 hPa SSW 7.9 mph /  12.7 km/h 9.7 mph /  15.6 km/h 98 % 0.0 in /  0 mm
09:46 2.2 °F /  -16.6 °C 1.9 °F /  -16.7 °C 1039.5 in /  35197.5 hPa SSW 4.7 mph /  7.6 km/h 9.7 mph /  15.6 km/h 98 % 0.0 in /  0 mm
09:51 2.2 °F /  -16.6 °C 1.9 °F /  -16.7 °C 1039.5 in /  35197.5 hPa SW 6.4 mph /  10.3 km/h 14.5 mph /  23.3 km/h 98 % 0.0 in /  0 mm
09:57 2.4 °F /  -16.4 °C 2.1 °F /  -16.6 °C 1039.5 in /  35197.5 hPa SSW 9.7 mph /  15.6 km/h 12.9 mph /  20.8 km/h 98 % 0.0 in /  0 mm
10:03 2.4 °F /  -16.4 °C 2.1 °F /  -16.6 °C 1039.5 in /  35197.5 hPa SSW 3.2 mph /  5.1 km/h 11.3 mph /  18.2 km/h 98 % 0.0 in /  0 mm
10:09 2.5 °F /  -16.4 °C 2.2 °F /  -16.6 °C 1039.5 in /  35197.5 hPa SW 6.4 mph /  10.3 km/h 11.3 mph /  18.2 km/h 98 % 0.0 in /  0 mm
10:15 2.6 °F /  -16.3 °C 2.3 °F /  -16.5 °C 1039.5 in /  35197.5 hPa SSW 9.7 mph /  15.6 km/h 9.7 mph /  15.6 km/h 98 % 0.0 in /  0 mm
10:21 2.7 °F /  -16.3 °C 2.4 °F /  -16.4 °C 1039.5 in /  35197.5 hPa SW 11.1 mph /  17.9 km/h 16.1 mph /  25.9 km/h 98 % 0.0 in /  0 mm
10:27 2.9 °F /  -16.2 °C 2.6 °F /  -16.3 °C 1039.5 in /  35197.5 hPa SSW 3.2 mph /  5.1 km/h 11.3 mph /  18.2 km/h 98 % 0.0 in /  0 mm
10:33 2.9 °F /  -16.2 °C 2.6 °F /  -16.3 °C 1039.5 in /  35197.5 hPa SW 6.4 mph /  10.3 km/h 9.7 mph /  15.6 km/h 98 % 0.0 in /  0 mm
10:39 2.9 °F /  -16.2 °C 2.6 °F /  -16.3 °C 1039.5 in /  35197.5 hPa SW 14.3 mph /  23 km/h 16.1 mph /  25.9 km/h 98 % 0.0 in /  0 mm
10:46 3.0 °F /  -16.1 °C 2.7 °F /  -16.3 °C 1039.8 in /  35207.6 hPa SW 6.4 mph /  10.3 km/h 12.9 mph /  20.8 km/h 98 % 0.0 in /  0 mm
10:52 3.1 °F /  -16.1 °C 2.8 °F /  -16.2 °C 1039.8 in /  35207.6 hPa WSW 6.4 mph /  10.3 km/h 11.3 mph /  18.2 km/h 98 % 0.0 in /  0 mm
10:58 3.1 °F /  -16.1 °C 2.8 °F /  -16.2 °C 1039.8 in /  35207.6 hPa South 1.4 mph /  2.3 km/h 9.7 mph /  15.6 km/h 98 % 0.0 in /  0 mm
11:04 3.2 °F /  -16 °C 2.9 °F /  -16.2 °C 1039.8 in /  35207.6 hPa SSW 7.9 mph /  12.7 km/h 12.9 mph /  20.8 km/h 98 % 0.0 in /  0 mm
11:10 3.3 °F /  -15.9 °C 3.0 °F /  -16.1 °C 1039.5 in /  35197.5 hPa SW 7.9 mph /  12.7 km/h 16.1 mph /  25.9 km/h 98 % 0.0 in /  0 mm
11:16 3.3 °F /  -15.9 °C 3.0 °F /  -16.1 °C 1039.8 in /  35207.6 hPa SSW 4.7 mph /  7.6 km/h 14.5 mph /  23.3 km/h 98 % 0.0 in /  0 mm
11:22 3.5 °F /  -15.8 °C 3.2 °F /  -16 °C 1039.8 in /  35207.6 hPa SSW 6.4 mph /  10.3 km/h 12.9 mph /  20.8 km/h 98 % 0.0 in /  0 mm
11:28 3.6 °F /  -15.8 °C 3.3 °F /  -15.9 °C 1039.8 in /  35207.6 hPa SW 6.4 mph /  10.3 km/h 12.9 mph /  20.8 km/h 98 % 0.0 in /  0 mm
11:34 3.7 °F /  -15.7 °C 3.4 °F /  -15.9 °C 1039.8 in /  35207.6 hPa SW 9.7 mph /  15.6 km/h 12.9 mph /  20.8 km/h 98 % 0.0 in /  0 mm
11:40 3.7 °F /  -15.7 °C 3.4 °F /  -15.9 °C 1039.8 in /  35207.6 hPa SW 3.2 mph /  5.1 km/h 11.3 mph /  18.2 km/h 98 % 0.0 in /  0 mm
11:46 3.9 °F /  -15.6 °C 3.6 °F /  -15.8 °C 1039.8 in /  35207.6 hPa SW 9.7 mph /  15.6 km/h 12.9 mph /  20.8 km/h 98 % 0.0 in /  0 mm
11:52 3.9 °F /  -15.6 °C 3.6 °F /  -15.8 °C 1039.8 in /  35207.6 hPa SSW 6.4 mph /  10.3 km/h 11.3 mph /  18.2 km/h 98 % 0.0 in /  0 mm
11:58 4.1 °F /  -15.5 °C 3.8 °F /  -15.7 °C 1039.8 in /  35207.6 hPa SW 7.9 mph /  12.7 km/h 11.3 mph /  18.2 km/h 98 % 0.0 in /  0 mm
12:04 4.1 °F /  -15.5 °C 3.8 °F /  -15.7 °C 1039.8 in /  35207.6 hPa SSW 7.9 mph /  12.7 km/h 14.5 mph /  23.3 km/h 98 % 0.0 in /  0 mm
12:10 4.2 °F /  -15.4 °C 3.9 °F /  -15.6 °C 1039.8 in /  35207.6 hPa SW 7.9 mph /  12.7 km/h 14.5 mph /  23.3 km/h 98 % 0.0 in /  0 mm
12:16 4.3 °F /  -15.4 °C 4.0 °F /  -15.6 °C 1039.8 in /  35207.6 hPa SW 9.7 mph /  15.6 km/h 16.1 mph /  25.9 km/h 98 % 0.0 in /  0 mm
12:22 4.3 °F /  -15.4 °C 4.0 °F /  -15.6 °C 1039.5 in /  35197.5 hPa SSW 13.0 mph /  20.9 km/h 17.7 mph /  28.5 km/h 98 % 0.0 in /  0 mm
12:28 4.4 °F /  -15.3 °C 4.1 °F /  -15.5 °C 1039.5 in /  35197.5 hPa SSW 13.0 mph /  20.9 km/h 13.0 mph /  20.9 km/h 98 % 0.0 in /  0 mm
12:34 4.4 °F /  -15.3 °C 4.1 °F /  -15.5 °C 1039.5 in /  35197.5 hPa SSW 9.7 mph /  15.6 km/h 16.1 mph /  25.9 km/h 98 % 0.0 in /  0 mm
12:40 4.6 °F /  -15.2 °C 4.3 °F /  -15.4 °C 1039.5 in /  35197.5 hPa SSW 9.7 mph /  15.6 km/h 12.9 mph /  20.8 km/h 98 % 0.0 in /  0 mm
12:46 4.6 °F /  -15.2 °C 4.3 °F /  -15.4 °C 1039.5 in /  35197.5 hPa SW 7.9 mph /  12.7 km/h 12.9 mph /  20.8 km/h 98 % 0.0 in /  0 mm
12:52 4.7 °F /  -15.2 °C 4.4 °F /  -15.3 °C 1039.5 in /  35197.5 hPa SSW 6.4 mph /  10.3 km/h 8.0 mph /  12.9 km/h 98 % 0.0 in /  0 mm
12:58 4.8 °F /  -15.1 °C 4.5 °F /  -15.3 °C 1039.5 in /  35197.5 hPa SW 7.9 mph /  12.7 km/h 12.9 mph /  20.8 km/h 98 % 0.0 in /  0 mm
13:04 4.9 °F /  -15.1 °C 4.6 °F /  -15.2 °C 1039.2 in /  35187.3 hPa SW 9.7 mph /  15.6 km/h 11.3 mph /  18.2 km/h 98 % 0.0 in /  0 mm
13:10 5.1 °F /  -14.9 °C 4.8 °F /  -15.1 °C 1039.2 in /  35187.3 hPa SW 6.4 mph /  10.3 km/h 9.7 mph /  15.6 km/h 98 % 0.0 in /  0 mm
13:16 5.2 °F /  -14.9 °C 4.9 °F /  -15.1 °C 1039.2 in /  35187.3 hPa SSW 4.7 mph /  7.6 km/h 9.7 mph /  15.6 km/h 98 % 0.0 in /  0 mm
13:22 5.3 °F /  -14.8 °C 5.0 °F /  -15 °C 1039.2 in /  35187.3 hPa WSW 9.7 mph /  15.6 km/h 12.9 mph /  20.8 km/h 98 % 0.0 in /  0 mm
13:28 5.4 °F /  -14.8 °C 5.1 °F /  -14.9 °C 1039.2 in /  35187.3 hPa SW 7.9 mph /  12.7 km/h 14.5 mph /  23.3 km/h 98 % 0.0 in /  0 mm
13:34 5.5 °F /  -14.7 °C 5.2 °F /  -14.9 °C 1039.2 in /  35187.3 hPa SW 6.4 mph /  10.3 km/h 12.9 mph /  20.8 km/h 98 % 0.0 in /  0 mm
13:40 5.6 °F /  -14.7 °C 5.3 °F /  -14.8 °C 1039.2 in /  35187.3 hPa SW 7.9 mph /  12.7 km/h 9.7 mph /  15.6 km/h 98 % 0.0 in /  0 mm
13:46 5.7 °F /  -14.6 °C 5.4 °F /  -14.8 °C 1039.2 in /  35187.3 hPa WSW 6.4 mph /  10.3 km/h 8.0 mph /  12.9 km/h 98 % 0.0 in /  0 mm
13:52 5.8 °F /  -14.6 °C 5.5 °F /  -14.7 °C 1039.2 in /  35187.3 hPa SW 9.7 mph /  15.6 km/h 11.3 mph /  18.2 km/h 98 % 0.0 in /  0 mm
13:58 5.8 °F /  -14.6 °C 5.5 °F /  -14.7 °C 1039.2 in /  35187.3 hPa SW 4.7 mph /  7.6 km/h 11.3 mph /  18.2 km/h 98 % 0.0 in /  0 mm
14:04 5.9 °F /  -14.5 °C 5.6 °F /  -14.7 °C 1039.2 in /  35187.3 hPa WSW 3.2 mph /  5.1 km/h 4.8 mph /  7.7 km/h 98 % 0.0 in /  0 mm
14:10 5.9 °F /  -14.5 °C 5.6 °F /  -14.7 °C 1039.2 in /  35187.3 hPa SW 6.4 mph /  10.3 km/h 8.0 mph /  12.9 km/h 98 % 0.0 in /  0 mm
14:16 6.0 °F /  -14.4 °C 5.7 °F /  -14.6 °C 1039.2 in /  35187.3 hPa WSW 6.4 mph /  10.3 km/h 8.0 mph /  12.9 km/h 98 % 0.0 in /  0 mm
14:22 6.1 °F /  -14.4 °C 5.8 °F /  -14.6 °C 1039.2 in /  35187.3 hPa WSW 1.4 mph /  2.3 km/h 1.6 mph /  2.6 km/h 98 % 0.0 in /  0 mm
14:28 6.2 °F /  -14.3 °C 5.9 °F /  -14.5 °C 1039.2 in /  35187.3 hPa SW 1.4 mph /  2.3 km/h 4.8 mph /  7.7 km/h 98 % 0.0 in /  0 mm
14:34 6.2 °F /  -14.3 °C 5.9 °F /  -14.5 °C 1039.2 in /  35187.3 hPa SW 3.2 mph /  5.1 km/h 6.4 mph /  10.3 km/h 98 % 0.0 in /  0 mm
14:40 6.2 °F /  -14.3 °C 5.9 °F /  -14.5 °C 1038.8 in /  35173.8 hPa SW 1.4 mph /  2.3 km/h 4.8 mph /  7.7 km/h 98 % 0.0 in /  0 mm
14:46 6.2 °F /  -14.3 °C 5.9 °F /  -14.5 °C 1038.8 in /  35173.8 hPa SW 3.2 mph /  5.1 km/h 4.8 mph /  7.7 km/h 98 % 0.0 in /  0 mm
14:52 6.3 °F /  -14.3 °C 6.0 °F /  -14.4 °C 1038.8 in /  35173.8 hPa WSW 3.2 mph /  5.1 km/h 9.7 mph /  15.6 km/h 98 % 0.0 in /  0 mm
14:58 6.3 °F /  -14.3 °C 6.0 °F /  -14.4 °C 1038.8 in /  35173.8 hPa WSW 1.4 mph /  2.3 km/h 6.4 mph /  10.3 km/h 98 % 0.0 in /  0 mm
15:04 6.3 °F /  -14.3 °C 6.0 °F /  -14.4 °C 1038.8 in /  35173.8 hPa SW 4.7 mph /  7.6 km/h 6.4 mph /  10.3 km/h 98 % 0.0 in /  0 mm
15:10 6.4 °F /  -14.2 °C 6.1 °F /  -14.4 °C 1038.8 in /  35173.8 hPa Calm   4.8 mph /  7.7 km/h 98 % 0.0 in /  0 mm
15:16 6.5 °F /  -14.2 °C 6.2 °F /  -14.3 °C 1038.8 in /  35173.8 hPa WSW 1.4 mph /  2.3 km/h 6.4 mph /  10.3 km/h 98 % 0.0 in /  0 mm
15:22 6.6 °F /  -14.1 °C 6.3 °F /  -14.3 °C 1038.8 in /  35173.8 hPa SW 1.4 mph /  2.3 km/h 3.2 mph /  5.1 km/h 98 % 0.0 in /  0 mm
15:28 6.6 °F /  -14.1 °C 6.3 °F /  -14.3 °C 1038.8 in /  35173.8 hPa SW 4.7 mph /  7.6 km/h 6.4 mph /  10.3 km/h 98 % 0.0 in /  0 mm
15:34 6.6 °F /  -14.1 °C 6.3 °F /  -14.3 °C 1038.8 in /  35173.8 hPa WSW 6.4 mph /  10.3 km/h 8.0 mph /  12.9 km/h 98 % 0.0 in /  0 mm
15:40 6.6 °F /  -14.1 °C 6.3 °F /  -14.3 °C 1038.8 in /  35173.8 hPa SW 4.7 mph /  7.6 km/h 8.0 mph /  12.9 km/h 98 % 0.0 in /  0 mm
15:46 6.6 °F /  -14.1 °C 6.3 °F /  -14.3 °C 1038.8 in /  35173.8 hPa SW 6.4 mph /  10.3 km/h 8.0 mph /  12.9 km/h 98 % 0.0 in /  0 mm
15:52 6.7 °F /  -14.1 °C 6.4 °F /  -14.2 °C 1038.8 in /  35173.8 hPa WSW 3.2 mph /  5.1 km/h 6.4 mph /  10.3 km/h 98 % 0.0 in /  0 mm
15:58 6.7 °F /  -14.1 °C 6.4 °F /  -14.2 °C 1038.8 in /  35173.8 hPa SW 7.9 mph /  12.7 km/h 8.0 mph /  12.9 km/h 98 % 0.0 in /  0 mm
16:04 6.8 °F /  -14 °C 6.5 °F /  -14.2 °C 1038.5 in /  35163.6 hPa WSW 1.4 mph /  2.3 km/h 8.0 mph /  12.9 km/h 98 % 0.0 in /  0 mm
16:10 6.8 °F /  -14 °C 6.5 °F /  -14.2 °C 1038.8 in /  35173.8 hPa SW 3.2 mph /  5.1 km/h 4.8 mph /  7.7 km/h 98 % 0.0 in /  0 mm
16:16 6.9 °F /  -13.9 °C 6.6 °F /  -14.1 °C 1038.8 in /  35173.8 hPa WSW 1.4 mph /  2.3 km/h 3.2 mph /  5.1 km/h 98 % 0.0 in /  0 mm
16:22 6.9 °F /  -13.9 °C 6.6 °F /  -14.1 °C 1038.5 in /  35163.6 hPa WSW 9.7 mph /  15.6 km/h 9.7 mph /  15.6 km/h 98 % 0.0 in /  0 mm
16:28 6.9 °F /  -13.9 °C 6.6 °F /  -14.1 °C 1038.5 in /  35163.6 hPa WSW 6.4 mph /  10.3 km/h 8.0 mph /  12.9 km/h 98 % 0.0 in /  0 mm
16:34 6.9 °F /  -13.9 °C 6.6 °F /  -14.1 °C 1038.5 in /  35163.6 hPa SW 1.4 mph /  2.3 km/h 6.4 mph /  10.3 km/h 98 % 0.0 in /  0 mm
16:40 7.0 °F /  -13.9 °C 6.7 °F /  -14.1 °C 1038.5 in /  35163.6 hPa SW 3.2 mph /  5.1 km/h 4.8 mph /  7.7 km/h 98 % 0.0 in /  0 mm
16:46 7.1 °F /  -13.8 °C 6.8 °F /  -14 °C 1038.5 in /  35163.6 hPa South 3.2 mph /  5.1 km/h 4.8 mph /  7.7 km/h 98 % 0.0 in /  0 mm
16:52 7.1 °F /  -13.8 °C 6.8 °F /  -14 °C 1038.8 in /  35173.8 hPa Calm   6.4 mph /  10.3 km/h 98 % 0.0 in /  0 mm
16:58 7.1 °F /  -13.8 °C 6.8 °F /  -14 °C 1038.8 in /  35173.8 hPa SW 1.4 mph /  2.3 km/h 4.8 mph /  7.7 km/h 98 % 0.0 in /  0 mm
17:04 7.1 °F /  -13.8 °C 6.8 °F /  -14 °C 1038.8 in /  35173.8 hPa SW 3.2 mph /  5.1 km/h 8.0 mph /  12.9 km/h 98 % 0.0 in /  0 mm
17:10 7.1 °F /  -13.8 °C 6.8 °F /  -14 °C 1038.8 in /  35173.8 hPa WSW 7.9 mph /  12.7 km/h 9.7 mph /  15.6 km/h 98 % 0.0 in /  0 mm
17:16 7.1 °F /  -13.8 °C 6.8 °F /  -14 °C 1038.8 in /  35173.8 hPa SW 1.4 mph /  2.3 km/h 6.4 mph /  10.3 km/h 98 % 0.0 in /  0 mm
17:22 7.1 °F /  -13.8 °C 6.8 °F /  -14 °C 1038.8 in /  35173.8 hPa SW 1.4 mph /  2.3 km/h 6.4 mph /  10.3 km/h 98 % 0.0 in /  0 mm
17:28 7.1 °F /  -13.8 °C 6.8 °F /  -14 °C 1038.8 in /  35173.8 hPa Calm   4.8 mph /  7.7 km/h 98 % 0.0 in /  0 mm
17:34 7.1 °F /  -13.8 °C 6.8 °F /  -14 °C 1038.8 in /  35173.8 hPa SW 4.7 mph /  7.6 km/h 6.4 mph /  10.3 km/h 98 % 0.0 in /  0 mm
17:40 7.1 °F /  -13.8 °C 6.8 °F /  -14 °C 1038.8 in /  35173.8 hPa Calm   8.0 mph /  12.9 km/h 98 % 0.0 in /  0 mm
17:46 7.1 °F /  -13.8 °C 6.8 °F /  -14 °C 1038.8 in /  35173.8 hPa WSW 1.4 mph /  2.3 km/h 6.4 mph /  10.3 km/h 98 % 0.0 in /  0 mm
17:52 7.1 °F /  -13.8 °C 6.8 °F /  -14 °C 1038.8 in /  35173.8 hPa SW 4.7 mph /  7.6 km/h 4.8 mph /  7.7 km/h 98 % 0.0 in /  0 mm
17:58 7.1 °F /  -13.8 °C 6.8 °F /  -14 °C 1038.8 in /  35173.8 hPa Calm   3.2 mph /  5.1 km/h 98 % 0.0 in /  0 mm
18:04 7.1 °F /  -13.8 °C 6.8 °F /  -14 °C 1038.8 in /  35173.8 hPa West 1.4 mph /  2.3 km/h 3.2 mph /  5.1 km/h 98 % 0.0 in /  0 mm
18:11 7.1 °F /  -13.8 °C 6.8 °F /  -14 °C 1038.8 in /  35173.8 hPa WSW 1.4 mph /  2.3 km/h 4.8 mph /  7.7 km/h 98 % 0.0 in /  0 mm
18:17 7.1 °F /  -13.8 °C 6.8 °F /  -14 °C 1039.2 in /  35187.3 hPa WSW 1.4 mph /  2.3 km/h 3.2 mph /  5.1 km/h 98 % 0.0 in /  0 mm
18:23 7.2 °F /  -13.8 °C 6.9 °F /  -13.9 °C 1039.2 in /  35187.3 hPa SW 1.4 mph /  2.3 km/h 3.2 mph /  5.1 km/h 98 % 0.0 in /  0 mm
18:29 7.2 °F /  -13.8 °C 6.9 °F /  -13.9 °C 1039.2 in /  35187.3 hPa Calm   3.2 mph /  5.1 km/h 98 % 0.0 in /  0 mm
18:35 7.2 °F /  -13.8 °C 6.9 °F /  -13.9 °C 1038.8 in /  35173.8 hPa SSW 1.4 mph /  2.3 km/h 4.8 mph /  7.7 km/h 98 % 0.0 in /  0 mm
18:41 7.2 °F /  -13.8 °C 6.9 °F /  -13.9 °C 1039.2 in /  35187.3 hPa WSW 1.4 mph /  2.3 km/h 4.8 mph /  7.7 km/h 98 % 0.0 in /  0 mm
18:47 7.2 °F /  -13.8 °C 6.9 °F /  -13.9 °C 1039.2 in /  35187.3 hPa SW 1.4 mph /  2.3 km/h 3.2 mph /  5.1 km/h 98 % 0.0 in /  0 mm
18:53 7.2 °F /  -13.8 °C 6.9 °F /  -13.9 °C 1039.2 in /  35187.3 hPa SW 1.4 mph /  2.3 km/h 3.2 mph /  5.1 km/h 98 % 0.0 in /  0 mm
18:59 7.2 °F /  -13.8 °C 6.9 °F /  -13.9 °C 1039.2 in /  35187.3 hPa SW 1.4 mph /  2.3 km/h 1.6 mph /  2.6 km/h 98 % 0.0 in /  0 mm
19:05 7.2 °F /  -13.8 °C 6.9 °F /  -13.9 °C 1039.2 in /  35187.3 hPa SSW 3.2 mph /  5.1 km/h 3.2 mph /  5.1 km/h 98 % 0.0 in /  0 mm
19:11 7.2 °F /  -13.8 °C 6.9 °F /  -13.9 °C 1039.2 in /  35187.3 hPa SW 3.2 mph /  5.1 km/h 3.2 mph /  5.1 km/h 98 % 0.0 in /  0 mm
19:17 7.2 °F /  -13.8 °C 6.9 °F /  -13.9 °C 1039.2 in /  35187.3 hPa SSW 3.2 mph /  5.1 km/h 4.8 mph /  7.7 km/h 98 % 0.0 in /  0 mm
19:23 7.2 °F /  -13.8 °C 6.9 °F /  -13.9 °C 1039.2 in /  35187.3 hPa SW 1.4 mph /  2.3 km/h 4.8 mph /  7.7 km/h 98 % 0.0 in /  0 mm
19:29 7.2 °F /  -13.8 °C 6.9 °F /  -13.9 °C 1039.2 in /  35187.3 hPa SW 3.2 mph /  5.1 km/h 3.2 mph /  5.1 km/h 98 % 0.0 in /  0 mm
19:35 7.2 °F /  -13.8 °C 6.9 °F /  -13.9 °C 1039.2 in /  35187.3 hPa SW 1.4 mph /  2.3 km/h 4.8 mph /  7.7 km/h 98 % 0.0 in /  0 mm
19:41 7.2 °F /  -13.8 °C 6.9 °F /  -13.9 °C 1039.2 in /  35187.3 hPa West 1.4 mph /  2.3 km/h 3.2 mph /  5.1 km/h 98 % 0.0 in /  0 mm
19:47 7.2 °F /  -13.8 °C 6.9 °F /  -13.9 °C 1039.2 in /  35187.3 hPa SW 3.2 mph /  5.1 km/h 4.8 mph /  7.7 km/h 98 % 0.0 in /  0 mm
19:53 7.2 °F /  -13.8 °C 6.9 °F /  -13.9 °C 1039.2 in /  35187.3 hPa WSW 3.2 mph /  5.1 km/h 6.4 mph /  10.3 km/h 98 % 0.0 in /  0 mm
19:59 7.2 °F /  -13.8 °C 6.9 °F /  -13.9 °C 1039.2 in /  35187.3 hPa SW 3.2 mph /  5.1 km/h 6.4 mph /  10.3 km/h 98 % 0.0 in /  0 mm
20:05 7.2 °F /  -13.8 °C 6.9 °F /  -13.9 °C 1039.2 in /  35187.3 hPa WSW 1.4 mph /  2.3 km/h 6.4 mph /  10.3 km/h 98 % 0.0 in /  0 mm
20:11 7.2 °F /  -13.8 °C 6.9 °F /  -13.9 °C 1039.2 in /  35187.3 hPa WSW 3.2 mph /  5.1 km/h 3.2 mph /  5.1 km/h 98 % 0.0 in /  0 mm
20:17 7.2 °F /  -13.8 °C 6.9 °F /  -13.9 °C 1039.2 in /  35187.3 hPa SW 3.2 mph /  5.1 km/h 6.4 mph /  10.3 km/h 98 % 0.0 in /  0 mm
20:23 7.2 °F /  -13.8 °C 6.9 °F /  -13.9 °C 1039.2 in /  35187.3 hPa WSW 3.2 mph /  5.1 km/h 6.4 mph /  10.3 km/h 98 % 0.0 in /  0 mm
20:29 7.2 °F /  -13.8 °C 6.9 °F /  -13.9 °C 1039.2 in /  35187.3 hPa SW 1.4 mph /  2.3 km/h 8.0 mph /  12.9 km/h 98 % 0.0 in /  0 mm
20:35 7.2 °F /  -13.8 °C 6.9 °F /  -13.9 °C 1039.2 in /  35187.3 hPa WSW 3.2 mph /  5.1 km/h 11.3 mph /  18.2 km/h 98 % 0.0 in /  0 mm
20:41 7.2 °F /  -13.8 °C 6.9 °F /  -13.9 °C 1039.2 in /  35187.3 hPa WSW 1.4 mph /  2.3 km/h 8.0 mph /  12.9 km/h 98 % 0.0 in /  0 mm
20:47 7.2 °F /  -13.8 °C 6.9 °F /  -13.9 °C 1039.2 in /  35187.3 hPa WSW 3.2 mph /  5.1 km/h 6.4 mph /  10.3 km/h 98 % 0.0 in /  0 mm
20:53 7.2 °F /  -13.8 °C 6.9 °F /  -13.9 °C 1039.2 in /  35187.3 hPa Calm   4.8 mph /  7.7 km/h 98 % 0.0 in /  0 mm
20:59 7.2 °F /  -13.8 °C 6.9 °F /  -13.9 °C 1039.2 in /  35187.3 hPa WSW 4.7 mph /  7.6 km/h 9.7 mph /  15.6 km/h 98 % 0.0 in /  0 mm
21:05 7.2 °F /  -13.8 °C 6.9 °F /  -13.9 °C 1039.2 in /  35187.3 hPa West 3.2 mph /  5.1 km/h 6.4 mph /  10.3 km/h 98 % 0.0 in /  0 mm
21:11 7.2 °F /  -13.8 °C 6.9 °F /  -13.9 °C 1039.2 in /  35187.3 hPa WSW 3.2 mph /  5.1 km/h 6.4 mph /  10.3 km/h 98 % 0.0 in /  0 mm
21:17 7.2 °F /  -13.8 °C 6.9 °F /  -13.9 °C 1039.2 in /  35187.3 hPa SW 4.7 mph /  7.6 km/h 6.4 mph /  10.3 km/h 98 % 0.0 in /  0 mm
21:23 7.2 °F /  -13.8 °C 6.9 °F /  -13.9 °C 1039.2 in /  35187.3 hPa SW 6.4 mph /  10.3 km/h 9.7 mph /  15.6 km/h 98 % 0.0 in /  0 mm
21:29 7.2 °F /  -13.8 °C 6.9 °F /  -13.9 °C 1039.5 in /  35197.5 hPa WSW 3.2 mph /  5.1 km/h 8.0 mph /  12.9 km/h 98 % 0.0 in /  0 mm
21:35 7.2 °F /  -13.8 °C 6.9 °F /  -13.9 °C 1039.2 in /  35187.3 hPa WSW 7.9 mph /  12.7 km/h 9.7 mph /  15.6 km/h 98 % 0.0 in /  0 mm
21:41 7.2 °F /  -13.8 °C 6.9 °F /  -13.9 °C 1039.2 in /  35187.3 hPa SW 6.4 mph /  10.3 km/h 12.9 mph /  20.8 km/h 98 % 0.0 in /  0 mm
21:47 7.2 °F /  -13.8 °C 6.9 °F /  -13.9 °C 1039.2 in /  35187.3 hPa West 4.7 mph /  7.6 km/h 8.0 mph /  12.9 km/h 98 % 0.0 in /  0 mm
21:55 7.2 °F /  -13.8 °C 6.9 °F /  -13.9 °C 1039.2 in /  35187.3 hPa South 4.7 mph /  7.6 km/h 11.3 mph /  18.2 km/h 98 % 0.0 in /  0 mm
22:01 7.2 °F /  -13.8 °C 6.9 °F /  -13.9 °C 1039.2 in /  35187.3 hPa SW 4.7 mph /  7.6 km/h 11.3 mph /  18.2 km/h 98 % 0.0 in /  0 mm
22:07 7.2 °F /  -13.8 °C 6.9 °F /  -13.9 °C 1039.2 in /  35187.3 hPa WSW 9.7 mph /  15.6 km/h 11.3 mph /  18.2 km/h 98 % 0.0 in /  0 mm
22:13 7.2 °F /  -13.8 °C 6.9 °F /  -13.9 °C 1038.8 in /  35173.8 hPa WSW 4.7 mph /  7.6 km/h 11.3 mph /  18.2 km/h 98 % 0.0 in /  0 mm
22:19 7.2 °F /  -13.8 °C 6.9 °F /  -13.9 °C 1038.8 in /  35173.8 hPa WSW 4.7 mph /  7.6 km/h 8.0 mph /  12.9 km/h 98 % 0.0 in /  0 mm
22:25 7.2 °F /  -13.8 °C 6.9 °F /  -13.9 °C 1038.8 in /  35173.8 hPa SSW 4.7 mph /  7.6 km/h 8.0 mph /  12.9 km/h 98 % 0.0 in /  0 mm
22:31 7.2 °F /  -13.8 °C 6.9 °F /  -13.9 °C 1038.8 in /  35173.8 hPa SSW 4.7 mph /  7.6 km/h 9.7 mph /  15.6 km/h 98 % 0.0 in /  0 mm
22:37 7.2 °F /  -13.8 °C 6.9 °F /  -13.9 °C 1038.8 in /  35173.8 hPa SW 11.1 mph /  17.9 km/h 11.3 mph /  18.2 km/h 98 % 0.0 in /  0 mm
22:43 7.2 °F /  -13.8 °C 6.9 °F /  -13.9 °C 1038.8 in /  35173.8 hPa SW 3.2 mph /  5.1 km/h 6.4 mph /  10.3 km/h 98 % 0.0 in /  0 mm
22:49 7.2 °F /  -13.8 °C 6.9 °F /  -13.9 °C 1038.8 in /  35173.8 hPa WSW 6.4 mph /  10.3 km/h 8.0 mph /  12.9 km/h 98 % 0.0 in /  0 mm
22:55 7.2 °F /  -13.8 °C 6.9 °F /  -13.9 °C 1038.8 in /  35173.8 hPa WSW 4.7 mph /  7.6 km/h 6.4 mph /  10.3 km/h 98 % 0.0 in /  0 mm
23:01 7.2 °F /  -13.8 °C 6.9 °F /  -13.9 °C 1038.8 in /  35173.8 hPa WSW 3.2 mph /  5.1 km/h 8.0 mph /  12.9 km/h 98 % 0.0 in /  0 mm
23:08 7.2 °F /  -13.8 °C 6.9 °F /  -13.9 °C 1038.8 in /  35173.8 hPa SW 4.7 mph /  7.6 km/h 11.3 mph /  18.2 km/h 98 % 0.0 in /  0 mm
23:13 7.2 °F /  -13.8 °C 6.9 °F /  -13.9 °C 1038.8 in /  35173.8 hPa SW 3.2 mph /  5.1 km/h 8.0 mph /  12.9 km/h 98 % 0.0 in /  0 mm
23:19 7.2 °F /  -13.8 °C 6.9 °F /  -13.9 °C 1038.8 in /  35173.8 hPa SW 11.1 mph /  17.9 km/h 11.3 mph /  18.2 km/h 98 % 0.0 in /  0 mm
23:25 7.2 °F /  -13.8 °C 6.9 °F /  -13.9 °C 1038.8 in /  35173.8 hPa SW 7.9 mph /  12.7 km/h 8.0 mph /  12.9 km/h 98 % 0.0 in /  0 mm
23:32 7.2 °F /  -13.8 °C 6.9 °F /  -13.9 °C 1038.8 in /  35173.8 hPa SW 4.7 mph /  7.6 km/h 8.0 mph /  12.9 km/h 98 % 0.0 in /  0 mm
23:37 7.2 °F /  -13.8 °C 6.9 °F /  -13.9 °C 1038.8 in /  35173.8 hPa SW 3.2 mph /  5.1 km/h 4.8 mph /  7.7 km/h 98 % 0.0 in /  0 mm
23:43 7.2 °F /  -13.8 °C 6.9 °F /  -13.9 °C 1038.5 in /  35163.6 hPa SW 1.4 mph /  2.3 km/h 8.0 mph /  12.9 km/h 98 % 0.0 in /  0 mm
23:49 7.2 °F /  -13.8 °C 6.9 °F /  -13.9 °C 1038.5 in /  35163.6 hPa SW 3.2 mph /  5.1 km/h 8.0 mph /  12.9 km/h 98 % 0.0 in /  0 mm
23:56 7.2 °F /  -13.8 °C 6.9 °F /  -13.9 °C 1038.5 in /  35163.6 hPa West 4.7 mph /  7.6 km/h 14.5 mph /  23.3 km/h 98 % 0.0 in /  0 mm
Meteo18
Compliments of Weather Underground - 4 mb

Script developed by  Jim McMurry - jmcmurry@mwt.net Adapted for the template by  Wim van der Kuil - Leuven-Template.eu

You find our weather info also at:

European Weather Network

Weather Underground

Equipment we use:

Weather-station
Davis Vue

Weather-program
Meteobridge

Weather-server
Raspberry PI 2 B+

Provider
1 and 1

Davis Vue

Meteobridge

Raspberry PI 2 B+

1 and 1